Hummelstown, PA (17036)

5:02 PM EST on December 08, 2016 (GMT -0500)
DTPD | | Change Station

Elev 357 ft 40.28 °N, 76.68 °W | Updated 5 seconds ago

Clear
Clear
36.1 °F
Feels Like 34 °F
N
3.1
Wind Variable Wind from WNW
Gusts 11.0 mph

Today
High -- | Low -- °F
--% Chance of Precip.
Yesterday
High -- | Low -- °F
Precip. -- in
Pressure 30.03 in
Visibility 10.0 miles
Clouds Few 4000 ft
Few 25000 ft
Windchill 34 °F
Dew Point 19 °F
Humidity 49%
Rainfall 0.46 in
Snow Depth Not available.
7:17 AM 4:40 PM
Waxing Gibbous, 67% visible
METAR KMDT 082156Z 31015G21KT 10SM FEW040 FEW250 03/M07 A3002 RMK AO2 SLP168 T00281067
Pressure 30.03 in
Visibility 10.0 miles
Clouds Few 4000 ft
Few 25000 ft
Windchill 34 °F
Dew Point 19 °F
Humidity 49%
Rainfall 0.46 in
Snow Depth Not available.
7:17 AM 4:40 PM
Waxing Gibbous, 67% visible
METAR KMDT 082156Z 31015G21KT 10SM FEW040 FEW250 03/M07 A3002 RMK AO2 SLP168 T00281067

10-Day Weather Forecast

Almanac

Astronomy

Dec. 08, 2016 Rise Set
Actual Time
Civil Twilight
Nautical Twilight
Astronomical Twilight
Moon
Length of Visible Light
Length of Day
Tomorrow will be .
, % of the Moon is Illuminated

Today's Extremes

State Highs State Lows

Community

WunderPhotos

Upload Photos

1,956,277 photos uploaded!

WunderBlog® & News

Nearby

Air Quality

  Air Quality AQ Index Pollutant
Not available.

Snow Depth

Station Depth Elevation

Earthquake Activity

City Distance Mag. Time & Date
Minimum magnitude displayed is 2.5.

Coastal Water Temperatures

Place Temperature

Stations

Nearby Weather Stations

Station Location Temp. Windchill Dew Point Humidity Wind Precip. Elev Updated Type
                   

Watches & Warnings

There are currently no watches in effect.